Flight Track Log - Related Links

Times and Time Zones

All times are in EDT time to prevent confusion due to time zone crossing. See the AAL794 flight status page for this flight to view local times or setup timezone preferences in your user account.

Time Position Orientation Groundspeed Altitude Reporting Facility
EDT Latitude Longitude Course Direction KTS MPH feet Rate Location/Type
Mon 09:30:17 PM 36.0764 -115.1894 94° East 191 220 3,400  Level Los Angeles Center
Mon 09:32:00 PM 36.1833 -115.0733 90° East  Level FlightAware Approximate
Mon 09:32:06 PM 36.1092 -115.2964 291° West 237 273 6,500  Level Salt Lake Center
Mon 09:32:56 PM 36.1625 -115.2781 16° North 251 289 8,200 1,653 Climbing Los Angeles Center
Mon 09:33:00 PM 36.1833 -114.9226 90° East  Level FlightAware Approximate
Mon 09:33:44 PM 36.1900 -115.2053 65° Northeast 280 322 9,200  Level Los Angeles Center
Mon 09:34:00 PM 36.1988 -114.7738 78° East  Level FlightAware Approximate
Mon 09:34:51 PM 36.1969 -115.0883 86° East 316 364 10,900  Level Los Angeles Center
Mon 09:35:00 PM 36.1921 -114.6236 94° East  Level FlightAware Approximate
Mon 09:36:10 PM 36.2114 -114.9403 83° East 365 420 12,600  Level Los Angeles Center
Mon 09:37:12 PM 36.3058 -114.8308 43° Northeast 392 451 15,300 2,323 Climbing Los Angeles Center
Mon 09:38:14 PM 36.3928 -114.7417 40° Northeast 405 466 17,400 2,129 Climbing Los Angeles Center
Mon 09:39:16 PM 36.4742 -114.6406 45° Northeast 414 476 19,700 2,098 Climbing Los Angeles Center
Mon 09:40:17 PM 36.5422 -114.5247 54° Northeast 415 478 21,700 1,756 Climbing Los Angeles Center
Mon 09:41:19 PM 36.6044 -114.4039 57° Northeast 414 476 23,300 1,500 Climbing Los Angeles Center
Mon 09:42:21 PM 36.6694 -114.2800 57° Northeast 423 487 24,800 1,403 Climbing Los Angeles Center
Mon 09:43:23 PM 36.7456 -114.1400 56° Northeast 426 490 26,200 1,220 Climbing Los Angeles Center
Mon 09:44:24 PM 36.8161 -114.0047 57° Northeast 436 502 27,300 1,073 Climbing Los Angeles Center
Mon 09:45:26 PM 36.8800 -113.8817 57° Northeast 445 512 28,400 968 Climbing Los Angeles Center
Mon 09:46:28 PM 36.9494 -113.7492 57° Northeast 452 520 29,300 780 Climbing Los Angeles Center
Mon 09:47:29 PM 37.0197 -113.6172 56° Northeast 456 525 30,000 780 Climbing Los Angeles Center
Mon 09:48:31 PM 37.0917 -113.4797 57° Northeast 465 535 30,900 1,161 Climbing Los Angeles Center
Mon 09:49:33 PM 37.1747 -113.3175 57° Northeast 464 534 32,400 968 Climbing Los Angeles Center
Mon 09:50:35 PM 37.2442 -113.1836 57° Northeast 460 529 32,900 293 Climbing Los Angeles Center
Mon 09:51:36 PM 37.3139 -113.0489 57° Northeast 462 532 33,000 49 Climbing Los Angeles Center
Mon 09:52:38 PM 37.4042 -112.9436 43° Northeast 457 526 33,000  Level Los Angeles Center
Mon 09:53:39 PM 37.5106 -112.8606 32° Northeast 459 528 33,000  Level Salt Lake Center
Mon 09:54:41 PM 37.6406 -112.7628 31° Northeast 477 549 33,000  Level Salt Lake Center
Mon 09:55:43 PM 37.7500 -112.6803 31° Northeast 466 536 33,000  Level Salt Lake Center
Mon 09:56:44 PM 37.8497 -112.5753 40° Northeast 472 543 33,000  Level Salt Lake Center
Mon 09:57:46 PM 37.9192 -112.4403 57° Northeast 460 529 33,000  Level Salt Lake Center
Mon 09:58:48 PM 37.9889 -112.3036 57° Northeast 462 532 33,000  Level Salt Lake Center
Mon 09:59:49 PM 38.0567 -112.1683 58° Northeast 458 527 33,000  Level Salt Lake Center
Mon 10:00:51 PM 38.1047 -112.0206 68° East 453 521 33,000  Level Salt Lake Center
Mon 10:01:53 PM 38.1583 -111.8400 69° East 455 524 33,000  Level Salt Lake Center
Mon 10:02:54 PM 38.2311 -111.7050 56° Northeast 460 529 33,000  Level Salt Lake Center
Mon 10:03:56 PM 38.3019 -111.5683 57° Northeast 464 534 33,000  Level Salt Lake Center
Mon 10:04:58 PM 38.3722 -111.4328 56° Northeast 460 529 33,000  Level Salt Lake Center
Mon 10:05:59 PM 38.4425 -111.2939 57° Northeast 465 535 33,000  Level Salt Lake Center
Mon 10:07:01 PM 38.5131 -111.1539 57° Northeast 469 540 33,000  Level Salt Lake Center
Mon 10:08:03 PM 38.5856 -111.0133 57° Northeast 473 544 33,000  Level Salt Lake Center
Mon 10:09:04 PM 38.6658 -110.8533 57° Northeast 467 537 33,000  Level Salt Lake Center
Mon 10:10:06 PM 38.7331 -110.7197 57° Northeast 465 535 33,000  Level Salt Lake Center
Mon 10:11:08 PM 38.8119 -110.5614 57° Northeast 470 541 33,000  Level Salt Lake Center
Mon 10:12:09 PM 38.8783 -110.4272 58° Northeast 467 537 33,000  Level Salt Lake Center
Mon 10:12:39 PM 38.9100 -110.3567 60° Northeast 469 540 33,000  Level Denver Center
Mon 10:13:41 PM 38.9892 -110.1969 57° Northeast 475 547 33,000  Level Denver Center
Mon 10:14:43 PM 39.0550 -110.0608 58° Northeast 469 540 33,000  Level Denver Center
Mon 10:15:14 PM 39.0894 -109.9956 56° Northeast 466 536 33,000  Level Salt Lake Center
Mon 10:15:45 PM 39.1311 -109.9033 60° Northeast 465 535 33,000  Level Denver Center
Mon 10:16:16 PM 39.1658 -109.8378 56° Northeast 464 534 33,000  Level Salt Lake Center
Mon 10:17:18 PM 39.2306 -109.7028 58° Northeast 463 533 33,000  Level Salt Lake Center
Mon 10:18:20 PM 39.3078 -109.5425 58° Northeast 469 540 33,000  Level Salt Lake Center
Mon 10:19:21 PM 39.3731 -109.4069 58° Northeast 465 535 33,000  Level Salt Lake Center
Mon 10:19:53 PM 39.4044 -109.3369 60° Northeast 465 535 33,000  Level Denver Center
Mon 10:20:54 PM 39.4806 -109.1775 58° Northeast 466 536 33,000  Level Denver Center
Mon 10:21:25 PM 39.5144 -109.1097 57° Northeast 469 540 33,000  Level Salt Lake Center
Mon 10:22:26 PM 39.5800 -108.9731 58° Northeast 468 539 33,000  Level Salt Lake Center
Mon 10:23:28 PM 39.6556 -108.8147 58° Northeast 468 539 33,000  Level Salt Lake Center
Mon 10:24:00 PM 39.6958 -108.7289 59° Northeast 483 556 33,000  Level Denver Center
Mon 10:25:02 PM 39.7614 -108.5886 59° Northeast 473 544 33,000  Level Denver Center
Mon 10:26:05 PM 39.8339 -108.4303 59° Northeast 459 528 33,000  Level Denver Center
Mon 10:27:06 PM 39.8989 -108.2953 58° Northeast 459 528 33,000  Level Denver Center
Mon 10:28:08 PM 39.9697 -108.1369 60° Northeast 452 520 33,000  Level Denver Center
Mon 10:29:10 PM 40.0325 -108.0011 59° Northeast 455 524 33,000  Level Denver Center
Mon 10:30:12 PM 40.1025 -107.8367 61° Northeast 462 532 33,000  Level Denver Center
Mon 10:31:14 PM 40.1558 -107.6908 64° Northeast 465 535 33,000  Level Denver Center
Mon 10:32:16 PM 40.2111 -107.5464 63° Northeast 465 535 33,000  Level Denver Center
Mon 10:33:18 PM 40.2750 -107.3775 64° Northeast 464 534 33,000  Level Denver Center
Mon 10:34:19 PM 40.3278 -107.2342 64° Northeast 460 529 33,000  Level Denver Center
Mon 10:35:21 PM 40.3906 -107.0686 63° Northeast 455 524 33,000  Level Denver Center
Mon 10:36:23 PM 40.4439 -106.9247 64° Northeast 458 527 33,000  Level Denver Center
Mon 10:37:25 PM 40.4958 -106.7839 64° Northeast 460 529 33,000  Level Denver Center
Mon 10:38:39 PM 40.5733 -106.5711 64° Northeast 459 528 33,000  Level Denver Center
Mon 10:39:41 PM 40.6294 -106.4178 64° Northeast 458 527 33,000  Level Denver Center
Mon 10:40:43 PM 40.6800 -106.2733 65° Northeast 454 522 33,000  Level Denver Center
Mon 10:41:45 PM 40.7417 -106.1064 64° Northeast 456 525 33,000  Level Denver Center
Mon 10:42:47 PM 40.7939 -105.9556 65° Northeast 453 521 33,000  Level Denver Center
Mon 10:43:48 PM 40.8483 -105.8053 64° Northeast 455 524 33,000  Level Denver Center
Mon 10:44:50 PM 40.9003 -105.6569 65° Northeast 449 517 33,000  Level Denver Center
Mon 10:45:52 PM 40.9542 -105.5047 65° Northeast 453 521 33,000  Level Denver Center
Mon 10:46:54 PM 41.0158 -105.3269 65° Northeast 454 522 33,000  Level Denver Center
Mon 10:47:55 PM 41.0656 -105.1825 65° Northeast 455 524 33,000  Level Denver Center
Mon 10:48:57 PM 41.1161 -105.0394 65° Northeast 450 518 33,000  Level Denver Center
Mon 10:49:59 PM 41.1719 -104.8697 66° East 449 517 33,000  Level Denver Center
Mon 10:51:01 PM 41.2189 -104.7278 66° East 444 511 33,000  Level Denver Center
Mon 10:52:03 PM 41.2581 -104.5539 73° East 441 507 33,000  Level Denver Center
Mon 10:53:04 PM 41.2939 -104.4075 72° East 437 503 33,000  Level Denver Center
Mon 10:54:06 PM 41.3333 -104.2342 73° East 440 506 33,000  Level Denver Center
Mon 10:55:08 PM 41.3689 -104.0850 72° East 442 509 33,000  Level Denver Center
Mon 10:56:10 PM 41.4089 -103.9114 73° East 441 507 33,000  Level Denver Center
Mon 10:57:12 PM 41.4425 -103.7644 73° East 436 502 33,000  Level Denver Center
Mon 10:58:13 PM 41.4831 -103.5897 73° East 439 505 33,000  Level Denver Center
Mon 10:59:15 PM 41.5172 -103.4392 73° East 443 510 33,000  Level Denver Center
Mon 11:00:17 PM 41.5561 -103.2650 73° East 443 510 33,000  Level Denver Center
Mon 11:01:19 PM 41.5897 -103.1153 73° East 441 507 33,000  Level Denver Center
Mon 11:02:20 PM 41.6233 -102.9678 73° East 436 502 33,000  Level Denver Center
Mon 11:03:22 PM 41.6611 -102.7942 74° East 436 502 33,000  Level Denver Center
Mon 11:04:24 PM 41.6933 -102.6469 74° East 433 498 33,000  Level Denver Center
Mon 11:05:25 PM 41.7272 -102.4897 74° East 437 503 33,000  Level Denver Center
Mon 11:06:27 PM 41.7619 -102.3247 74° East 434 499 33,000  Level Denver Center
Mon 11:07:29 PM 41.7967 -102.1672 73° East 435 501 33,000  Level Denver Center
Mon 11:08:30 PM 41.8328 -101.9925 74° East 435 501 33,000  Level Denver Center
Mon 11:09:32 PM 41.8644 -101.8428 74° East 435 501 33,000  Level Denver Center
Mon 11:10:34 PM 41.8958 -101.6911 74° East 439 505 33,000  Level Denver Center
Mon 11:11:35 PM 41.9322 -101.5161 74° East 437 503 33,000  Level Denver Center
Mon 11:12:37 PM 41.9628 -101.3631 75° East 440 506 33,000  Level Denver Center
Mon 11:13:39 PM 41.9992 -101.1808 75° East 448 516 33,000  Level Denver Center
Mon 11:14:40 PM 42.0300 -101.0250 75° East 451 519 33,000  Level Denver Center
Mon 11:15:42 PM 42.0669 -100.8428 75° East 453 521 33,000  Level Denver Center
Mon 11:16:43 PM 42.0969 -100.6892 75° East 444 511 33,000  Level Denver Center
Mon 11:17:45 PM 42.1272 -100.5314 75° East 451 519 33,000  Level Denver Center
Mon 11:18:50 PM 42.1603 -100.3608 75° East 450 518 33,000  Level Minneapolis Center
Mon 11:19:51 PM 42.1922 -100.1986 75° East 449 517 33,000  Level Minneapolis Center
Mon 11:20:50 PM 42.2278 -100.0119 76° East 452 520 33,000  Level Denver Center
Mon 11:22:06 PM 42.2664 -99.8081 76° East 448 516 33,000  Level Minneapolis Center
Mon 11:23:07 PM 42.2964 -99.6458 76° East 446 513 33,000  Level Minneapolis Center
Mon 11:23:54 PM 42.3208 -99.5144 76° East 446 513 33,000  Level Denver Center
Mon 11:24:56 PM 42.3511 -99.3508 76° East 448 516 33,000  Level Denver Center
Mon 11:25:58 PM 42.3808 -99.1828 76° East 454 522 33,000  Level Denver Center
Mon 11:26:59 PM 42.4108 -99.0192 76° East 449 517 33,000  Level Denver Center
Mon 11:28:01 PM 42.4394 -98.8522 77° East 454 522 33,000  Level Denver Center
Mon 11:29:02 PM 42.4669 -98.6886 77° East 448 516 33,000  Level Denver Center
Mon 11:30:16 PM 42.4794 -98.4881 85° East 449 517 33,000  Level Minneapolis Center
Mon 11:31:17 PM 42.4883 -98.3219 86° East 445 512 33,000  Level Minneapolis Center
Mon 11:32:19 PM 42.4964 -98.1544 86° East 445 512 33,000  Level Minneapolis Center
Mon 11:33:20 PM 42.5022 -98.0194 87° East 447 514 33,000  Level Minneapolis Center
Mon 11:34:21 PM 42.5125 -97.8050 86° East 450 518 33,000  Level Minneapolis Center
Mon 11:35:22 PM 42.5197 -97.6344 87° East 453 521 33,000  Level Minneapolis Center
Mon 11:36:23 PM 42.5269 -97.4650 87° East 451 519 33,000  Level Minneapolis Center
Mon 11:37:24 PM 42.5339 -97.2956 87° East 452 520 33,000  Level Minneapolis Center
Mon 11:38:26 PM 42.5400 -97.1272 87° East 448 516 33,000  Level Minneapolis Center
Mon 11:39:27 PM 42.5458 -96.9597 87° East 446 513 33,000  Level Minneapolis Center
Mon 11:40:28 PM 42.5531 -96.7553 87° East 448 516 33,000  Level Minneapolis Center
Mon 11:41:29 PM 42.5589 -96.5847 87° East 452 520 33,000  Level Minneapolis Center
Mon 11:42:30 PM 42.5647 -96.4150 87° East 452 520 33,000  Level Minneapolis Center
Mon 11:43:31 PM 42.5700 -96.2450 88° East 451 519 33,000  Level Minneapolis Center
Mon 11:44:44 PM 42.5742 -96.0756 88° East 449 517 33,000  Level Minneapolis Center
Mon 11:45:46 PM 42.5806 -95.8719 87° East 449 517 33,000  Level Minneapolis Center
Mon 11:46:47 PM 42.5844 -95.7031 88° East 447 514 33,000  Level Minneapolis Center
Mon 11:47:48 PM 42.5883 -95.5331 88° East 449 517 33,000  Level Minneapolis Center
Mon 11:48:49 PM 42.5925 -95.3647 88° East 447 514 33,000  Level Minneapolis Center
Mon 11:49:50 PM 42.5961 -95.1956 88° East 448 516 33,000  Level Minneapolis Center
Mon 11:50:51 PM 42.5997 -95.0275 88° East 446 513 33,000  Level Minneapolis Center
Mon 11:51:52 PM 42.6031 -94.8572 88° East 449 517 33,000  Level Minneapolis Center
Mon 11:52:53 PM 42.6053 -94.6886 89° East 447 514 33,000  Level Minneapolis Center
Mon 11:53:54 PM 42.6081 -94.4936 89° East 449 517 33,000  Level Minneapolis Center
Mon 11:54:54 PM 42.6092 -94.3264 89° East 448 516 33,000  Level Minneapolis Center
Mon 11:55:55 PM 42.6075 -94.1594 91° East 447 514 33,000  Level Minneapolis Center
Mon 11:56:56 PM 42.6019 -93.9931 93° East 447 514 33,000  Level Minneapolis Center
Mon 11:57:57 PM 42.5958 -93.8275 93° East 445 512 33,000  Level Minneapolis Center
Mon 11:58:58 PM 42.5911 -93.6625 92° East 443 510 33,000  Level Minneapolis Center
Mon 11:59:59 PM 42.5847 -93.4961 93° East 444 511 33,000  Level Minneapolis Center
Tue 12:01:00 AM 42.5794 -93.3294 92° East 447 514 33,000  Level Minneapolis Center
Tue 12:02:01 AM 42.5717 -93.1303 93° East 446 513 33,000  Level Minneapolis Center
Tue 12:02:40 AM 42.5675 -93.0303 93° East 445 512 33,000  Level Chicago Center
Tue 12:03:41 AM 42.5608 -92.8650 93° East 444 511 33,000  Level Chicago Center
Tue 12:04:42 AM 42.5531 -92.7019 94° East 440 506 33,000  Level Chicago Center
Tue 12:05:43 AM 42.5461 -92.5369 93° East 444 511 33,000  Level Chicago Center
Tue 12:06:44 AM 42.5394 -92.3717 93° East 445 512 33,000  Level Chicago Center
Tue 12:07:45 AM 42.5311 -92.2061 94° East 445 512 33,000  Level Chicago Center
Tue 12:08:46 AM 42.5228 -92.0106 93° East 441 507 33,000  Level Chicago Center
Tue 12:09:46 AM 42.5244 -91.8464 89° East 443 510 33,000  Level Chicago Center
Tue 12:10:47 AM 42.5247 -91.6828 90° East 444 511 33,000  Level Chicago Center
Tue 12:11:48 AM 42.5253 -91.5189 90° East 445 512 33,000  Level Chicago Center
Tue 12:12:48 AM 42.5258 -91.3544 90° East 446 513 33,000  Level Chicago Center
Tue 12:13:49 AM 42.5256 -91.1919 90° East 442 509 33,000  Level Chicago Center
Tue 12:14:50 AM 42.5261 -91.0272 90° East 443 510 33,000  Level Chicago Center
Tue 12:15:51 AM 42.5256 -90.8283 90° East 444 511 33,000  Level Chicago Center
Tue 12:16:51 AM 42.5253 -90.6608 90° East 448 516 33,000  Level Chicago Center
Tue 12:17:52 AM 42.5228 -90.4975 91° East 442 509 33,000 -836 Level Chicago Center
Tue 12:18:53 AM 42.5211 -90.3322 91° East 442 509 31,300 -2,132 Descending Chicago Center
Tue 12:19:53 AM 42.5192 -90.1658 91° East 446 513 28,700 -2,529 Descending Chicago Center
Tue 12:20:54 AM 42.5061 -90.0019 96° East 444 511 26,200 -2,361 Descending Chicago Center
Tue 12:21:55 AM 42.4908 -89.8128 96° East 455 524 23,900 -2,231 Descending Chicago Center
Tue 12:22:55 AM 42.4775 -89.6444 96° East 451 519 21,700 -2,132 Descending Chicago Center
Tue 12:23:56 AM 42.4633 -89.4828 97° East 436 502 19,600 -1,884 Descending Chicago Center
Tue 12:24:56 AM 42.4494 -89.3256 97° East 424 488 17,900 -1,934 Descending Chicago Center
Tue 12:25:57 AM 42.4369 -89.1728 96° East 410 472 15,700 -1,869 Descending Chicago Center
Tue 12:26:58 AM 42.4239 -89.0258 97° East 398 458 14,100 -1,636 Descending Chicago Center
Tue 12:27:58 AM 42.4111 -88.8819 97° East 388 447 12,400 -1,438 Descending Chicago Center
Tue 12:28:59 AM 42.3972 -88.7486 98° East 364 419 11,200 -1,140 Descending Chicago Center
Tue 12:29:59 AM 42.3842 -88.6294 98° East 328 377 10,100 -1,041 Descending Chicago Center
Tue 12:31:00 AM 42.3739 -88.5214 97° East 297 342 9,100 -541 Descending Chicago Center
Tue 12:32:01 AM 42.3433 -88.4275 114° Southeast 282 325 9,000 -149 Descending Chicago Center
Tue 12:33:01 AM 42.3036 -88.3278 118° Southeast 281 323 8,800 -645 Descending Chicago Center
Tue 12:34:02 AM 42.2597 -88.2444 125° Southeast 274 315 7,700 -1,190 Descending Chicago Center
Tue 12:35:02 AM 42.2069 -88.1797 138° Southeast 260 299 6,400 -1,339 Descending Chicago Center
Tue 12:36:03 AM 42.1522 -88.1186 140° Southeast 258 297 5,000 -1,388 Descending Chicago Center
Tue 12:37:03 AM 42.1042 -88.0583 137° Southeast 244 281 3,600 -1,296 Descending Chicago Center
Tue 12:38:08 AM 42.0500 -88.0000 141° Southeast 177 204 2,300 -1,200 Descending Chicago TRACON

Login

Don't have an account? Register now (free) for customized features, flight alerts, and more!